There are no active watches, warnings or advisories for Caledonia (Vermont).

Nearby METAR Reports

 

KCDA - Lyndonville, Vermont, USA
Distance from station: ENE 11mi, 18km
Updated: Fri, 21-Jul-2017 6:15pm EDT
Partly cloudy
Partly cloudy
 Wind from SW
Wind: SW 3 mph , 6 km/h
Temperature: 79°F , 26°C
Dew Point: 63°F , 17°C
Humidity: 58%
Barometer: 29.82 inHg , 1009.8 hPa
Clouds: Partly cloudy
Visibility: 10 miles , 16 km
Cloud details: Partly cloudy 5500 ft
2017/07/21 22:15 KCDA 212215Z AUTO 22003KT 10SM SCT055 26/17 A2982 RMK AO2 T02600165
K1V4 - St. Johnsbury, Vermont, USA
Distance from station: ESE 12mi, 19km
Updated: Fri, 21-Jul-2017 5:54pm EDT

 
Temperature: 82°F , 28°C
Heat Index: 82°F , 28°C
Dew Point: 61°F , 16°C
Humidity: 48%
Barometer: 29.76 inHg , 1007.8 hPa
2017/07/21 21:54 K1V4 212154Z AUTO 28/16 A2976 RMK AO1 SLP068 T02780161
 
KMVL - Morrisville, Vermont, USA
Distance from station: W 20mi, 31km
Updated: Fri, 21-Jul-2017 5:54pm EDT
Mostly cloudy
Mostly cloudy
 Wind from varies
Wind: varies 6 mph , 9 km/h
Temperature: 81°F , 27°C
Heat Index: 81°F , 27°C
Dew Point: 59°F , 15°C
Humidity: 48%
Barometer: 29.80 inHg , 1009.1 hPa
Clouds: Mostly cloudy
Visibility: 10 miles , 16 km
Cloud details: Mostly cloudy 6500 ft
2017/07/21 21:54 KMVL 212154Z AUTO VRB05KT 10SM BKN065 27/15 A2980 RMK AO2 SLP090 T02670150
KEFK - Newport State, Vermont, USA
Distance from station: N 26mi, 42km
Updated: Fri, 21-Jul-2017 6:15pm EDT
Partly cloudy
Partly cloudy
 Wind from W
Wind: W 5 mph , 7 km/h, Gust: 18 mph , 30 km/h
Temperature: 77°F , 25°C
Dew Point: 63°F , 17°C
Humidity: 61%
Barometer: 29.80 inHg , 1009.1 hPa
Clouds: Partly cloudy
Visibility: 10 miles , 16 km
Cloud details: Partly cloudy 7500 ft
Partly cloudy 8500 ft
2017/07/21 22:15 KEFK 212215Z AUTO 26004G16KT 10SM SCT075 SCT085 25/17 A2980 RMK AO2 T02540171
 
KMPV - Montpelier/Barre, Vermont, USA
Distance from station: SW 27mi, 44km
Updated: Fri, 21-Jul-2017 5:51pm EDT
Few Clouds
Few Clouds
 Wind from WSW
Wind: WSW 8 mph , 13 km/h
Temperature: 81°F , 27°C
Heat Index: 82°F , 28°C
Dew Point: 61°F , 16°C
Humidity: 51%
Barometer: 29.85 inHg , 1010.8 hPa
Clouds: Few Clouds
Visibility: 10 miles , 16 km
Cloud details: Few Clouds 7000 ft
2017/07/21 21:51 KMPV 212151Z AUTO 25007KT 10SM FEW070 27/16 A2985 RMK AO2 SLP102 T02720161
KHIE - Whitefield, New Hampshire, USA
Distance from station: ESE 34mi, 55km
Updated: Fri, 21-Jul-2017 5:52pm EDT
Clear
Clear
 Wind from WSW
Wind: WSW 8 mph , 13 km/h
Temperature: 81°F , 27°C
Heat Index: 81°F , 27°C
Dew Point: 57°F , 14°C
Humidity: 45%
Barometer: 29.79 inHg , 1008.8 hPa
Clouds: Clear
Visibility: 10 miles , 16 km
2017/07/21 21:52 KHIE 212152Z AUTO 25007KT 10SM CLR 27/14 A2979 RMK AO2 SLP086 T02720144
 
KBTV - Burlington, Vermont, USA
Distance from station: W 46mi, 74km
Updated: Fri, 21-Jul-2017 5:54pm EDT
Mostly cloudy
Mostly cloudy
 Wind from NW
Wind: NW 10 mph , 17 km/h
Temperature: 84°F , 29°C
Heat Index: 85°F , 29°C
Dew Point: 63°F , 17°C
Humidity: 48%
Barometer: 29.77 inHg , 1008.1 hPa
Clouds: Mostly cloudy
Visibility: 10 miles , 16 km
Cloud details: Few Clouds 5000 ft
Mostly cloudy 7500 ft
Mostly cloudy 8500 ft
2017/07/21 21:54 KBTV 212154Z 32009KT 10SM FEW050 BKN075 BKN085 29/17 A2977 RMK AO2 SLP081 T02940167
CWFQ - Frelighsburg, Quebec, Canada
Distance from station: NW 47mi, 75km
Updated: Fri, 21-Jul-2017 6:00pm EDT

 Wind from WNW
Wind: WNW 5 mph , 7 km/h
Temperature: 79°F , 26°C
Dew Point: 64°F , 18°C
Humidity: 61%
2017/07/21 22:00 CWFQ 212200Z AUTO 29004KT 26/18 RMK AO1 SLP082 T02570181 55003
 
KMWN - Mount Washington, New Hampshire, USA
Distance from station: ESE 49mi, 79km
Updated: Fri, 21-Jul-2017 5:49pm EDT
Few Clouds
Few Clouds
 Wind from W
Wind: W 53 mph , 85 km/h, Gust: 59 mph , 94 km/h
Temperature: 55°F , 13°C
Dew Point: 48°F , 9°C
Humidity: 77%
Clouds: Few Clouds
Visibility: 40 miles , 64 km
Cloud details: Few Clouds 500 ft
Few Clouds 18000 ft
2017/07/21 21:49 KMWN 212149Z 28046G51KT 40SM FEW005 FEW180 13/09 RMK HZ DSNT ALQDS
KBML - Berlin, New Hampshire, USA
Distance from station: E 51mi, 83km
Updated: Fri, 21-Jul-2017 5:52pm EDT
Partly cloudy
Partly cloudy
 Wind from varies
Wind: varies 5 mph , 7 km/h
Temperature: 82°F , 28°C
Heat Index: 81°F , 27°C
Dew Point: 55°F , 13°C
Humidity: 40%
Barometer: 29.79 inHg , 1008.8 hPa
Clouds: Partly cloudy
Visibility: 10 miles , 16 km
Cloud details: Partly cloudy 6500 ft
2017/07/21 21:52 KBML 212152Z AUTO VRB04KT 10SM SCT065 28/13 A2979 RMK AO2 SLP083 T02780128
 
KFSO - Highgate, Vermont, USA
Distance from station: NW 52mi, 84km
Updated: Fri, 21-Jul-2017 6:15pm EDT
Clear
Clear
 Wind from W
Wind: W 5 mph , 7 km/h
Temperature: 81°F , 27°C
Heat Index: 82°F , 28°C
Dew Point: 63°F , 17°C
Humidity: 54%
Barometer: 29.77 inHg , 1008.1 hPa
Clouds: Clear
Visibility: 10 miles , 16 km
2017/07/21 22:15 KFSO 212215Z AUTO 27004KT 10SM CLR 27/17 A2977 RMK AO2 T02710173
CWTT - Lac Memphremagog, Quebec, Canada
Distance from station: N 53mi, 85km
Updated: Fri, 21-Jul-2017 6:00pm EDT

 Wind from WNW
Wind: WNW 12 mph , 19 km/h, Gust: 17 mph , 28 km/h
Temperature: 77°F , 25°C
Dew Point: 64°F , 18°C
Humidity: 65%
2017/07/21 22:00 CWTT 212200Z AUTO 29010G15KT 25/18 RMK AO1 PK WND 27019/2136 T02520181
 
K1P1 - Plymouth, New Hampshire, USA
Distance from station: SSE 55mi, 88km
Updated: Fri, 21-Jul-2017 6:15pm EDT
Partly cloudy
Partly cloudy
 Wind from W
Wind: W 5 mph , 7 km/h
Temperature: 82°F , 28°C
Heat Index: 82°F , 28°C
Dew Point: 61°F , 16°C
Humidity: 48%
Barometer: 29.78 inHg , 1008.5 hPa
Clouds: Partly cloudy
Visibility: 10 miles , 16 km
Cloud details: Partly cloudy 6000 ft
Partly cloudy 7000 ft
2017/07/21 22:15 K1P1 212215Z AUTO 28004KT 10SM SCT060 SCT070 28/16 A2978 RMK AO2 T02840158
KLEB - Lebanon, New Hampshire, USA
Distance from station: S 60mi, 97km
Updated: Fri, 21-Jul-2017 5:53pm EDT
Few Clouds
Few Clouds
 Wind from SW
Wind: SW 8 mph , 13 km/h
Temperature: 84°F , 29°C
Heat Index: 85°F , 29°C
Dew Point: 63°F , 17°C
Humidity: 48%
Barometer: 29.78 inHg , 1008.5 hPa
Clouds: Few Clouds
Visibility: 10 miles , 16 km
Cloud details: Few Clouds 6000 ft
2017/07/21 21:53 KLEB 212153Z 23007KT 10SM FEW060 29/17 A2978 RMK AO2 SLP075 T02890172
 
KPBG - Plattsburgh Afb, New York, USA
Distance from station: W 62mi, 100km
Updated: Fri, 21-Jul-2017 5:53pm EDT
Mostly cloudy
Mostly cloudy
 Wind from NW
Wind: NW 8 mph , 13 km/h
Temperature: 82°F , 28°C
Heat Index: 83°F , 28°C
Dew Point: 63°F , 17°C
Humidity: 51%
Barometer: 29.78 inHg , 1008.5 hPa
Clouds: Mostly cloudy
Visibility: 10 miles , 16 km
Cloud details: Mostly cloudy 9000 ft
Mostly cloudy 12000 ft
2017/07/21 21:53 KPBG 212153Z AUTO 31007KT 10SM BKN090 BKN120 28/17 A2978 RMK AO2 SLP084 T02780167
CWQH - Lennoxville, Quebec, Canada
Distance from station: NNE 63mi, 101km
Updated: Fri, 21-Jul-2017 6:00pm EDT

 Wind from W
Wind: W 12 mph , 19 km/h, Gust: 18 mph , 30 km/h
Temperature: 79°F , 26°C
Dew Point: 64°F , 18°C
Humidity: 61%
2017/07/21 22:00 CWQH 212200Z AUTO 27010G16KT 26/18 RMK AO1 PK WND 24023/2106 T02610175
 
CMGB - Granby, Quebec, Canada
Distance from station: NNW 65mi, 105km
Updated: Fri, 21-Jul-2017 6:15pm EDT

 Wind from W
Wind: W 7 mph , 11 km/h
Temperature: 77°F , 25°C
Dew Point: 64°F , 18°C
Humidity: 65%
2017/07/21 22:15 CMGB 212215Z AUTO 26006KT 25/18 RMK AO1 SLP074 T02530180 55001
CYSC - Sherbrooke, Quebec, Canada
Distance from station: NNE 69mi, 112km
Updated: Fri, 21-Jul-2017 6:17pm EDT
Overcast
Overcast
 Wind from NNW
Wind: NNW 10 mph , 17 km/h, Gust: 23 mph , 37 km/h
Temperature: 70°F , 21°C
Dew Point: 59°F , 15°C
Humidity: 69%
Barometer: 29.79 inHg , 1008.8 hPa
Clouds: Overcast
Visibility: 9 miles , 14 km
Cloud details: Mostly cloudy 4200 ft
Mostly cloudy 5500 ft
Mostly cloudy 7300 ft
Overcast 9200 ft
2017/07/21 22:17 CYSC 212217Z AUTO 34009G20KT 310V010 9SM BKN042 BKN055 BKN073 OVC092 21/15 A2979 RMK LTNG DIST NE E PRESRR SLP088 DENSITY ALT 1800FT
 
KIZG - Fryeburg, Maine, USA
Distance from station: ESE 72mi, 117km
Updated: Fri, 21-Jul-2017 5:54pm EDT
Clear
Clear
 Wind from WSW
Wind: WSW 5 mph , 7 km/h
Temperature: 82°F , 28°C
Heat Index: 82°F , 28°C
Dew Point: 59°F , 15°C
Humidity: 45%
Barometer: 29.76 inHg , 1007.8 hPa
Clouds: Clear
Visibility: 10 miles , 16 km
2017/07/21 21:54 KIZG 212154Z AUTO 24004KT 10SM CLR 28/15 A2976 RMK AO2 SLP075 T02830150